sensor_id;sensor_type;location;lat;lon;timestamp;pressure;altitude;pressure_sealevel;temperature;humidity
46045;BME280;31781;54.094;13.428;2023-01-26T00:00:49;102553.53;;;0.49;74.24
46045;BME280;31781;54.094;13.428;2023-01-26T00:02:51;102557.94;;;0.50;73.62
46045;BME280;31781;54.094;13.428;2023-01-26T00:04:53;102549.03;;;0.49;73.71
46045;BME280;31781;54.094;13.428;2023-01-26T00:06:57;102553.44;;;0.51;74.14
46045;BME280;31781;54.094;13.428;2023-01-26T00:08:58;102551.63;;;0.51;73.98
46045;BME280;31781;54.094;13.428;2023-01-26T00:11:02;102547.22;;;0.50;74.20
46045;BME280;31781;54.094;13.428;2023-01-26T00:13:05;102542.81;;;0.49;74.10
46045;BME280;31781;54.094;13.428;2023-01-26T00:15:07;102537.47;;;0.49;73.62
46045;BME280;31781;54.094;13.428;2023-01-26T00:17:09;102533.94;;;0.48;73.85
46045;BME280;31781;54.094;13.428;2023-01-26T00:19:11;102528.69;;;0.47;73.96
46045;BME280;31781;54.094;13.428;2023-01-26T00:21:14;102525.88;;;0.48;73.70
46045;BME280;31781;54.094;13.428;2023-01-26T00:23:17;102523.34;;;0.47;74.36
46045;BME280;31781;54.094;13.428;2023-01-26T00:25:19;102526.97;;;0.46;74.85
46045;BME280;31781;54.094;13.428;2023-01-26T00:27:21;102518.06;;;0.45;74.23
46045;BME280;31781;54.094;13.428;2023-01-26T00:29:23;102526.88;;;0.47;74.06
46045;BME280;31781;54.094;13.428;2023-01-26T00:31:26;102526.00;;;0.47;73.96
46045;BME280;31781;54.094;13.428;2023-01-26T00:33:28;102526.00;;;0.47;74.43
46045;BME280;31781;54.094;13.428;2023-01-26T00:35:30;102528.78;;;0.45;74.39
46045;BME280;31781;54.094;13.428;2023-01-26T00:37:32;102526.97;;;0.46;74.33
46045;BME280;31781;54.094;13.428;2023-01-26T00:39:35;102526.88;;;0.47;74.51
46045;BME280;31781;54.094;13.428;2023-01-26T00:41:37;102520.66;;;0.47;74.79
46045;BME280;31781;54.094;13.428;2023-01-26T00:43:38;102516.16;;;0.47;74.50
46045;BME280;31781;54.094;13.428;2023-01-26T00:45:40;102512.50;;;0.48;74.86
46045;BME280;31781;54.094;13.428;2023-01-26T00:47:41;102506.41;;;0.46;74.76
46045;BME280;31781;54.094;13.428;2023-01-26T00:49:43;102515.19;;;0.48;74.83
46045;BME280;31781;54.094;13.428;2023-01-26T00:51:45;102518.72;;;0.49;74.58
46045;BME280;31781;54.094;13.428;2023-01-26T00:53:47;102522.25;;;0.49;74.72
46045;BME280;31781;54.094;13.428;2023-01-26T00:55:50;102526.66;;;0.51;74.72
46045;BME280;31781;54.094;13.428;2023-01-26T00:57:52;102516.81;;;0.51;74.75
46045;BME280;31781;54.094;13.428;2023-01-26T00:59:53;102514.16;;;0.51;74.60
46045;BME280;31781;54.094;13.428;2023-01-26T01:01:55;102513.16;;;0.52;74.66
46045;BME280;31781;54.094;13.428;2023-01-26T01:03:57;102518.50;;;0.52;74.85
46045;BME280;31781;54.094;13.428;2023-01-26T01:05:59;102516.81;;;0.51;74.82
46045;BME280;31781;54.094;13.428;2023-01-26T01:08:01;102513.06;;;0.54;74.43
46045;BME280;31781;54.094;13.428;2023-01-26T01:10:03;102509.53;;;0.53;74.23
46045;BME280;31781;54.094;13.428;2023-01-26T01:12:06;102510.38;;;0.54;74.52
46045;BME280;31781;54.094;13.428;2023-01-26T01:14:08;102508.78;;;0.51;74.48
46045;BME280;31781;54.094;13.428;2023-01-26T01:16:12;102507.06;;;0.50;75.02
46045;BME280;31781;54.094;13.428;2023-01-26T01:18:14;102500.97;;;0.48;74.67
46045;BME280;31781;54.094;13.428;2023-01-26T01:20:16;102492.94;;;0.48;74.78
46045;BME280;31781;54.094;13.428;2023-01-26T01:22:18;102484.03;;;0.47;74.39
46045;BME280;31781;54.094;13.428;2023-01-26T01:24:20;102480.56;;;0.45;74.68
46045;BME280;31781;54.094;13.428;2023-01-26T01:26:21;102479.84;;;0.43;74.70
46045;BME280;31781;54.094;13.428;2023-01-26T01:28:25;102486.13;;;0.42;75.03
46045;BME280;31781;54.094;13.428;2023-01-26T01:30:26;102489.78;;;0.41;75.13
46045;BME280;31781;54.094;13.428;2023-01-26T01:32:28;102478.19;;;0.41;74.68
46045;BME280;31781;54.094;13.428;2023-01-26T01:34:30;102474.56;;;0.42;75.34
46045;BME280;31781;54.094;13.428;2023-01-26T01:36:32;102459.44;;;0.41;75.18
46045;BME280;31781;54.094;13.428;2023-01-26T01:38:33;102459.38;;;0.42;74.66
46045;BME280;31781;54.094;13.428;2023-01-26T01:40:41;102465.59;;;0.43;74.72
46045;BME280;31781;54.094;13.428;2023-01-26T01:42:46;102455.72;;;0.43;74.57
46045;BME280;31781;54.094;13.428;2023-01-26T01:47:24;102457.44;;;0.44;74.71
46045;BME280;31781;54.094;13.428;2023-01-26T01:49:29;102449.41;;;0.44;74.54
46045;BME280;31781;54.094;13.428;2023-01-26T01:51:36;102458.41;;;0.43;75.24
46045;BME280;31781;54.094;13.428;2023-01-26T01:53:43;102450.59;;;0.40;74.66
46045;BME280;31781;54.094;13.428;2023-01-26T01:55:49;102453.16;;;0.42;74.83
46045;BME280;31781;54.094;13.428;2023-01-26T01:57:55;102445.31;;;0.39;74.97
46045;BME280;31781;54.094;13.428;2023-01-26T02:00:04;102437.50;;;0.36;74.99
46045;BME280;31781;54.094;13.428;2023-01-26T02:02:06;102425.84;;;0.37;74.72
46045;BME280;31781;54.094;13.428;2023-01-26T02:04:09;102420.56;;;0.35;74.85
46045;BME280;31781;54.094;13.428;2023-01-26T02:06:13;102418.19;;;0.31;75.23
46045;BME280;31781;54.094;13.428;2023-01-26T02:08:16;102408.34;;;0.31;74.60
46045;BME280;31781;54.094;13.428;2023-01-26T02:10:19;102416.28;;;0.33;74.61
46045;BME280;31781;54.094;13.428;2023-01-26T02:12:29;102409.22;;;0.32;74.81
46045;BME280;31781;54.094;13.428;2023-01-26T02:14:33;102405.75;;;0.30;74.79
46045;BME280;31781;54.094;13.428;2023-01-26T02:16:35;102411.13;;;0.30;74.80
46045;BME280;31781;54.094;13.428;2023-01-26T02:18:37;102412.09;;;0.29;75.37
46045;BME280;31781;54.094;13.428;2023-01-26T02:20:43;102407.63;;;0.29;75.41
46045;BME280;31781;54.094;13.428;2023-01-26T02:22:51;102407.63;;;0.29;75.31
46045;BME280;31781;54.094;13.428;2023-01-26T02:24:58;102404.16;;;0.27;74.78
46045;BME280;31781;54.094;13.428;2023-01-26T02:27:04;102403.28;;;0.27;74.92
46045;BME280;31781;54.094;13.428;2023-01-26T02:29:09;102392.59;;;0.27;75.08
46045;BME280;31781;54.094;13.428;2023-01-26T02:31:12;102396.25;;;0.26;74.90
46045;BME280;31781;54.094;13.428;2023-01-26T02:33:17;102399.75;;;0.26;75.24
46045;BME280;31781;54.094;13.428;2023-01-26T02:35:18;102399.88;;;0.25;74.93
46045;BME280;31781;54.094;13.428;2023-01-26T02:37:21;102399.97;;;0.23;75.13
46045;BME280;31781;54.094;13.428;2023-01-26T02:39:29;102395.47;;;0.24;75.10
46045;BME280;31781;54.094;13.428;2023-01-26T02:41:36;102388.31;;;0.24;75.41
46045;BME280;31781;54.094;13.428;2023-01-26T02:43:40;102392.81;;;0.24;75.38
46045;BME280;31781;54.094;13.428;2023-01-26T02:45:42;102383.81;;;0.25;75.36
46045;BME280;31781;54.094;13.428;2023-01-26T02:47:44;102386.50;;;0.25;75.50
46045;BME280;31781;54.094;13.428;2023-01-26T02:49:46;102385.63;;;0.24;75.12
46045;BME280;31781;54.094;13.428;2023-01-26T02:51:48;102383.16;;;0.21;75.53
46045;BME280;31781;54.094;13.428;2023-01-26T02:53:50;102384.78;;;0.24;75.54
46045;BME280;31781;54.094;13.428;2023-01-26T02:55:51;102378.56;;;0.23;75.48
46045;BME280;31781;54.094;13.428;2023-01-26T02:57:54;102383.03;;;0.23;75.40
46045;BME280;31781;54.094;13.428;2023-01-26T02:59:58;102376.75;;;0.24;75.50
46045;BME280;31781;54.094;13.428;2023-01-26T03:01:59;102373.19;;;0.23;75.58
46045;BME280;31781;54.094;13.428;2023-01-26T03:04:01;102369.56;;;0.24;75.35
46045;BME280;31781;54.094;13.428;2023-01-26T03:06:03;102366.91;;;0.24;75.09
46045;BME280;31781;54.094;13.428;2023-01-26T03:08:05;102364.13;;;0.26;75.50
46045;BME280;31781;54.094;13.428;2023-01-26T03:10:08;102357.06;;;0.25;75.08
46045;BME280;31781;54.094;13.428;2023-01-26T03:12:10;102361.47;;;0.26;75.56
46045;BME280;31781;54.094;13.428;2023-01-26T03:14:13;102357.91;;;0.25;75.65
46045;BME280;31781;54.094;13.428;2023-01-26T03:16:17;102362.41;;;0.25;75.48
46045;BME280;31781;54.094;13.428;2023-01-26T03:18:21;102359.59;;;0.26;75.62
46045;BME280;31781;54.094;13.428;2023-01-26T03:20:23;102358.78;;;0.26;74.89
46045;BME280;31781;54.094;13.428;2023-01-26T03:22:25;102352.56;;;0.25;74.90
46045;BME280;31781;54.094;13.428;2023-01-26T03:24:28;102352.44;;;0.27;75.39
46045;BME280;31781;54.094;13.428;2023-01-26T03:26:30;102353.44;;;0.26;74.91
46045;BME280;31781;54.094;13.428;2023-01-26T03:28:32;102355.25;;;0.25;75.38
46045;BME280;31781;54.094;13.428;2023-01-26T03:30:34;102347.94;;;0.27;75.20
46045;BME280;31781;54.094;13.428;2023-01-26T03:32:37;102352.44;;;0.27;75.47
46045;BME280;31781;54.094;13.428;2023-01-26T03:34:46;102350.63;;;0.27;75.27
46045;BME280;31781;54.094;13.428;2023-01-26T03:36:48;102345.41;;;0.26;75.30
46045;BME280;31781;54.094;13.428;2023-01-26T03:38:49;102346.22;;;0.26;75.07
46045;BME280;31781;54.094;13.428;2023-01-26T03:40:56;102348.06;;;0.26;74.83
46045;BME280;31781;54.094;13.428;2023-01-26T03:42:58;102350.75;;;0.26;74.76
46045;BME280;31781;54.094;13.428;2023-01-26T03:45:07;102355.25;;;0.25;75.45
46045;BME280;31781;54.094;13.428;2023-01-26T03:47:09;102349.88;;;0.25;75.20
46045;BME280;31781;54.094;13.428;2023-01-26T03:49:12;102356.19;;;0.24;74.97
46045;BME280;31781;54.094;13.428;2023-01-26T03:51:14;102352.56;;;0.25;75.06
46045;BME280;31781;54.094;13.428;2023-01-26T03:53:17;102354.25;;;0.26;74.96
46045;BME280;31781;54.094;13.428;2023-01-26T03:55:20;102355.13;;;0.27;75.15
46045;BME280;31781;54.094;13.428;2023-01-26T03:57:21;102356.84;;;0.28;74.81
46045;BME280;31781;54.094;13.428;2023-01-26T03:59:23;102350.63;;;0.27;75.22
46045;BME280;31781;54.094;13.428;2023-01-26T04:01:25;102356.75;;;0.29;75.02
46045;BME280;31781;54.094;13.428;2023-01-26T04:03:27;102354.06;;;0.29;75.53
46045;BME280;31781;54.094;13.428;2023-01-26T04:05:30;102353.94;;;0.31;75.44
46045;BME280;31781;54.094;13.428;2023-01-26T04:07:32;102346.88;;;0.30;75.25
46045;BME280;31781;54.094;13.428;2023-01-26T04:09:37;102361.13;;;0.30;75.47
46045;BME280;31781;54.094;13.428;2023-01-26T04:11:38;102357.50;;;0.31;75.10
46045;BME280;31781;54.094;13.428;2023-01-26T04:13:40;102353.84;;;0.32;75.40
46045;BME280;31781;54.094;13.428;2023-01-26T04:15:42;102356.53;;;0.32;75.43
46045;BME280;31781;54.094;13.428;2023-01-26T04:17:44;102356.41;;;0.34;75.41
46045;BME280;31781;54.094;13.428;2023-01-26T04:19:45;102356.31;;;0.35;75.53
46045;BME280;31781;54.094;13.428;2023-01-26T04:21:48;102360.59;;;0.38;75.84
46045;BME280;31781;54.094;13.428;2023-01-26T04:23:51;102370.28;;;0.40;75.75
46045;BME280;31781;54.094;13.428;2023-01-26T04:25:54;102371.97;;;0.41;75.25
46045;BME280;31781;54.094;13.428;2023-01-26T04:27:55;102373.69;;;0.42;75.82
46045;BME280;31781;54.094;13.428;2023-01-26T04:29:57;102365.44;;;0.45;75.41
46045;BME280;31781;54.094;13.428;2023-01-26T04:31:59;102363.53;;;0.47;75.94
46045;BME280;31781;54.094;13.428;2023-01-26T04:34:02;102351.00;;;0.48;75.79
46045;BME280;31781;54.094;13.428;2023-01-26T04:36:05;102356.22;;;0.49;75.83
46045;BME280;31781;54.094;13.428;2023-01-26T04:38:09;102357.09;;;0.50;75.59
46045;BME280;31781;54.094;13.428;2023-01-26T04:40:11;102358.06;;;0.49;75.36
46045;BME280;31781;54.094;13.428;2023-01-26T04:42:13;102358.91;;;0.49;75.19
46045;BME280;31781;54.094;13.428;2023-01-26T04:44:15;102366.00;;;0.51;75.27
46045;BME280;31781;54.094;13.428;2023-01-26T04:46:17;102364.28;;;0.49;74.99
46045;BME280;31781;54.094;13.428;2023-01-26T04:48:18;102361.59;;;0.49;74.87
46045;BME280;31781;54.094;13.428;2023-01-26T04:50:20;102357.97;;;0.51;75.07
46045;BME280;31781;54.094;13.428;2023-01-26T04:52:22;102361.38;;;0.53;75.06
46045;BME280;31781;54.094;13.428;2023-01-26T04:54:25;102356.00;;;0.53;75.39
46045;BME280;31781;54.094;13.428;2023-01-26T04:56:29;102356.88;;;0.53;75.16
46045;BME280;31781;54.094;13.428;2023-01-26T04:58:32;102357.84;;;0.52;75.24
46045;BME280;31781;54.094;13.428;2023-01-26T05:00:34;102358.69;;;0.53;75.54
46045;BME280;31781;54.094;13.428;2023-01-26T05:02:38;102357.84;;;0.52;75.74
46045;BME280;31781;54.094;13.428;2023-01-26T05:04:39;102344.56;;;0.51;74.93
46045;BME280;31781;54.094;13.428;2023-01-26T05:06:41;102352.59;;;0.51;75.43
46045;BME280;31781;54.094;13.428;2023-01-26T05:08:43;102351.66;;;0.52;74.97
46045;BME280;31781;54.094;13.428;2023-01-26T05:10:47;102355.28;;;0.51;75.20
46045;BME280;31781;54.094;13.428;2023-01-26T05:12:48;102350.88;;;0.49;75.53
46045;BME280;31781;54.094;13.428;2023-01-26T05:14:50;102356.13;;;0.51;75.65
46045;BME280;31781;54.094;13.428;2023-01-26T05:16:52;102362.38;;;0.52;75.61
46045;BME280;31781;54.094;13.428;2023-01-26T05:18:54;102366.84;;;0.51;75.17
46045;BME280;31781;54.094;13.428;2023-01-26T05:20:56;102368.53;;;0.52;75.38
46045;BME280;31781;54.094;13.428;2023-01-26T05:22:59;102362.38;;;0.52;75.14
46045;BME280;31781;54.094;13.428;2023-01-26T05:25:00;102352.47;;;0.52;75.15
46045;BME280;31781;54.094;13.428;2023-01-26T05:27:04;102352.38;;;0.54;75.68
46045;BME280;31781;54.094;13.428;2023-01-26T05:29:06;102362.16;;;0.55;75.97
46045;BME280;31781;54.094;13.428;2023-01-26T05:31:08;102355.06;;;0.54;75.73
46045;BME280;31781;54.094;13.428;2023-01-26T05:33:10;102358.47;;;0.56;75.78
46045;BME280;31781;54.094;13.428;2023-01-26T05:35:12;102358.38;;;0.57;75.71
46045;BME280;31781;54.094;13.428;2023-01-26T05:37:16;102353.91;;;0.58;75.54
46045;BME280;31781;54.094;13.428;2023-01-26T05:39:18;102345.78;;;0.59;75.86
46045;BME280;31781;54.094;13.428;2023-01-26T05:41:19;102344.91;;;0.59;75.64
46045;BME280;31781;54.094;13.428;2023-01-26T05:43:23;102348.44;;;0.59;75.27
46045;BME280;31781;54.094;13.428;2023-01-26T05:45:24;102341.38;;;0.58;75.79
46045;BME280;31781;54.094;13.428;2023-01-26T05:47:26;102348.53;;;0.58;75.76
46045;BME280;31781;54.094;13.428;2023-01-26T05:49:27;102349.41;;;0.58;75.55
46045;BME280;31781;54.094;13.428;2023-01-26T05:51:29;102345.78;;;0.59;76.13
46045;BME280;31781;54.094;13.428;2023-01-26T05:53:31;102339.53;;;0.59;75.52
46045;BME280;31781;54.094;13.428;2023-01-26T05:55:32;102333.34;;;0.58;75.83
46045;BME280;31781;54.094;13.428;2023-01-26T05:57:34;102335.88;;;0.60;76.15
46045;BME280;31781;54.094;13.428;2023-01-26T05:59:37;102341.25;;;0.60;75.92
46045;BME280;31781;54.094;13.428;2023-01-26T06:01:39;102341.25;;;0.60;75.46
46045;BME280;31781;54.094;13.428;2023-01-26T06:03:41;102337.72;;;0.59;75.89
46045;BME280;31781;54.094;13.428;2023-01-26T06:05:42;102345.00;;;0.57;75.69
46045;BME280;31781;54.094;13.428;2023-01-26T06:07:44;102341.47;;;0.57;75.59
46045;BME280;31781;54.094;13.428;2023-01-26T06:09:46;102332.56;;;0.56;75.77
46045;BME280;31781;54.094;13.428;2023-01-26T06:11:49;102334.28;;;0.57;75.63
46045;BME280;31781;54.094;13.428;2023-01-26T06:13:51;102342.31;;;0.57;75.85
46045;BME280;31781;54.094;13.428;2023-01-26T06:15:54;102346.81;;;0.57;75.96
46045;BME280;31781;54.094;13.428;2023-01-26T06:17:56;102349.50;;;0.57;75.96
46045;BME280;31781;54.094;13.428;2023-01-26T06:19:58;102345.94;;;0.56;75.86
46045;BME280;31781;54.094;13.428;2023-01-26T06:22:01;102340.59;;;0.56;76.00
46045;BME280;31781;54.094;13.428;2023-01-26T06:24:03;102339.00;;;0.54;75.82
46045;BME280;31781;54.094;13.428;2023-01-26T06:26:05;102345.94;;;0.56;75.47
46045;BME280;31781;54.094;13.428;2023-01-26T06:28:07;102340.59;;;0.56;75.35
46045;BME280;31781;54.094;13.428;2023-01-26T06:30:11;102344.03;;;0.58;75.81
46045;BME280;31781;54.094;13.428;2023-01-26T06:32:15;102344.03;;;0.58;76.02
46045;BME280;31781;54.094;13.428;2023-01-26T06:34:17;102349.41;;;0.58;75.47
46045;BME280;31781;54.094;13.428;2023-01-26T06:36:18;102340.50;;;0.58;75.24
46045;BME280;31781;54.094;13.428;2023-01-26T06:38:20;102343.19;;;0.58;75.52
46045;BME280;31781;54.094;13.428;2023-01-26T06:40:22;102342.31;;;0.57;76.05
46045;BME280;31781;54.094;13.428;2023-01-26T06:42:23;102343.19;;;0.58;75.78
46045;BME280;31781;54.094;13.428;2023-01-26T06:44:25;102343.19;;;0.58;76.08
46045;BME280;31781;54.094;13.428;2023-01-26T06:46:27;102341.59;;;0.55;75.50
46045;BME280;31781;54.094;13.428;2023-01-26T06:48:32;102337.81;;;0.58;75.95
46045;BME280;31781;54.094;13.428;2023-01-26T06:50:34;102339.53;;;0.59;76.00
46045;BME280;31781;54.094;13.428;2023-01-26T06:52:40;102339.53;;;0.59;75.85
46045;BME280;31781;54.094;13.428;2023-01-26T06:54:42;102348.44;;;0.59;75.76
46045;BME280;31781;54.094;13.428;2023-01-26T06:56:44;102352.06;;;0.58;75.61
46045;BME280;31781;54.094;13.428;2023-01-26T06:58:46;102355.63;;;0.59;75.67
46045;BME280;31781;54.094;13.428;2023-01-26T07:00:48;102361.84;;;0.59;75.67
46045;BME280;31781;54.094;13.428;2023-01-26T07:02:49;102360.97;;;0.59;75.83
46045;BME280;31781;54.094;13.428;2023-01-26T07:04:54;102356.34;;;0.61;75.91
46045;BME280;31781;54.094;13.428;2023-01-26T07:06:56;102355.50;;;0.60;75.54
46045;BME280;31781;54.094;13.428;2023-01-26T07:08:57;102359.03;;;0.61;75.37
46045;BME280;31781;54.094;13.428;2023-01-26T07:10:59;102356.56;;;0.58;75.50
46045;BME280;31781;54.094;13.428;2023-01-26T07:13:02;102359.16;;;0.59;75.68
46045;BME280;31781;54.094;13.428;2023-01-26T07:15:05;102358.28;;;0.59;75.47
46045;BME280;31781;54.094;13.428;2023-01-26T07:17:07;102360.13;;;0.58;76.01
46045;BME280;31781;54.094;13.428;2023-01-26T07:19:08;102359.25;;;0.58;75.57
46045;BME280;31781;54.094;13.428;2023-01-26T07:21:13;102369.00;;;0.59;75.46
46045;BME280;31781;54.094;13.428;2023-01-26T07:23:15;102361.06;;;0.57;75.53
46045;BME280;31781;54.094;13.428;2023-01-26T07:25:18;102361.06;;;0.57;76.21
46045;BME280;31781;54.094;13.428;2023-01-26T07:27:19;102358.38;;;0.57;75.61
46045;BME280;31781;54.094;13.428;2023-01-26T07:29:21;102355.72;;;0.57;75.70
46045;BME280;31781;54.094;13.428;2023-01-26T07:31:23;102351.44;;;0.55;75.48
46045;BME280;31781;54.094;13.428;2023-01-26T07:33:27;102349.50;;;0.57;75.48
46045;BME280;31781;54.094;13.428;2023-01-26T07:35:29;102349.50;;;0.57;75.72
46045;BME280;31781;54.094;13.428;2023-01-26T07:37:32;102351.22;;;0.58;76.24
46045;BME280;31781;54.094;13.428;2023-01-26T07:39:34;102358.28;;;0.59;76.16
46045;BME280;31781;54.094;13.428;2023-01-26T07:41:35;102360.00;;;0.60;75.98
46045;BME280;31781;54.094;13.428;2023-01-26T07:43:38;102360.84;;;0.60;75.96
46045;BME280;31781;54.094;13.428;2023-01-26T07:45:44;102362.47;;;0.63;76.08
46045;BME280;31781;54.094;13.428;2023-01-26T07:47:45;102356.25;;;0.62;76.46
46045;BME280;31781;54.094;13.428;2023-01-26T07:49:47;102347.25;;;0.63;76.07
46045;BME280;31781;54.094;13.428;2023-01-26T07:51:49;102343.59;;;0.64;75.77
46045;BME280;31781;54.094;13.428;2023-01-26T07:53:52;102353.47;;;0.64;75.93
46045;BME280;31781;54.094;13.428;2023-01-26T07:56:03;102355.91;;;0.67;75.99
46045;BME280;31781;54.094;13.428;2023-01-26T07:58:05;102357.56;;;0.69;76.21
46045;BME280;31781;54.094;13.428;2023-01-26T08:00:07;102360.09;;;0.71;76.35
46045;BME280;31781;54.094;13.428;2023-01-26T08:02:10;102358.28;;;0.71;75.81
46045;BME280;31781;54.094;13.428;2023-01-26T08:04:12;102351.97;;;0.72;76.52
46045;BME280;31781;54.094;13.428;2023-01-26T08:06:13;102351.88;;;0.74;76.40
46045;BME280;31781;54.094;13.428;2023-01-26T08:08:16;102351.66;;;0.77;75.85
46045;BME280;31781;54.094;13.428;2023-01-26T08:10:19;102352.53;;;0.77;76.13
46045;BME280;31781;54.094;13.428;2023-01-26T08:12:21;102341.59;;;0.80;75.68
46045;BME280;31781;54.094;13.428;2023-01-26T08:14:23;102346.81;;;0.82;75.69
46045;BME280;31781;54.094;13.428;2023-01-26T08:16:24;102346.72;;;0.83;75.86
46045;BME280;31781;54.094;13.428;2023-01-26T08:18:26;102346.63;;;0.85;76.48
46045;BME280;31781;54.094;13.428;2023-01-26T08:20:28;102336.75;;;0.85;76.52
46045;BME280;31781;54.094;13.428;2023-01-26T08:22:30;102347.28;;;0.88;76.22
46045;BME280;31781;54.094;13.428;2023-01-26T08:24:35;102346.28;;;0.89;75.65
46045;BME280;31781;54.094;13.428;2023-01-26T08:26:38;102342.66;;;0.90;75.62
46045;BME280;31781;54.094;13.428;2023-01-26T08:28:40;102340.84;;;0.91;76.15
46045;BME280;31781;54.094;13.428;2023-01-26T08:30:42;102343.50;;;0.91;76.20
46045;BME280;31781;54.094;13.428;2023-01-26T08:32:43;102350.59;;;0.92;76.06
46045;BME280;31781;54.094;13.428;2023-01-26T08:34:47;102352.28;;;0.93;76.36
46045;BME280;31781;54.094;13.428;2023-01-26T08:36:49;102358.41;;;0.95;75.88
46045;BME280;31781;54.094;13.428;2023-01-26T08:38:51;102361.81;;;0.97;76.08
46045;BME280;31781;54.094;13.428;2023-01-26T08:40:52;102360.88;;;0.98;75.55
46045;BME280;31781;54.094;13.428;2023-01-26T08:42:58;102360.78;;;1.00;76.44
46045;BME280;31781;54.094;13.428;2023-01-26T08:45:00;102367.81;;;1.01;76.03
46045;BME280;31781;54.094;13.428;2023-01-26T08:47:02;102371.50;;;1.00;75.66
46045;BME280;31781;54.094;13.428;2023-01-26T08:49:04;102365.16;;;1.01;75.48
46045;BME280;31781;54.094;13.428;2023-01-26T08:51:06;102369.66;;;1.00;76.13
46045;BME280;31781;54.094;13.428;2023-01-26T08:53:08;102356.25;;;1.00;75.66
46045;BME280;31781;54.094;13.428;2023-01-26T08:55:10;102365.06;;;1.02;75.78
46045;BME280;31781;54.094;13.428;2023-01-26T08:57:12;102360.56;;;1.03;76.15
46045;BME280;31781;54.094;13.428;2023-01-26T08:59:15;102358.75;;;1.03;75.65
46045;BME280;31781;54.094;13.428;2023-01-26T09:01:17;102369.31;;;1.05;76.36
46045;BME280;31781;54.094;13.428;2023-01-26T09:03:19;102370.97;;;1.07;75.76
46045;BME280;31781;54.094;13.428;2023-01-26T09:05:21;102370.09;;;1.07;75.52
46045;BME280;31781;54.094;13.428;2023-01-26T09:07:22;102366.56;;;1.06;75.79
46045;BME280;31781;54.094;13.428;2023-01-26T09:09:24;102358.38;;;1.08;75.51
46045;BME280;31781;54.094;13.428;2023-01-26T09:11:26;102352.19;;;1.07;75.64
46045;BME280;31781;54.094;13.428;2023-01-26T09:13:28;102353.03;;;1.08;75.66
46045;BME280;31781;54.094;13.428;2023-01-26T09:15:31;102352.19;;;1.07;76.05
46045;BME280;31781;54.094;13.428;2023-01-26T09:17:33;102352.19;;;1.07;76.48
46045;BME280;31781;54.094;13.428;2023-01-26T09:19:35;102355.50;;;1.11;75.90
46045;BME280;31781;54.094;13.428;2023-01-26T09:21:36;102354.66;;;1.10;75.96
46045;BME280;31781;54.094;13.428;2023-01-26T09:23:38;102360.66;;;1.14;76.26
46045;BME280;31781;54.094;13.428;2023-01-26T09:25:39;102353.34;;;1.16;75.90
46045;BME280;31781;54.094;13.428;2023-01-26T09:27:41;102351.53;;;1.16;75.88
46045;BME280;31781;54.094;13.428;2023-01-26T09:29:43;102357.53;;;1.20;75.71
46045;BME280;31781;54.094;13.428;2023-01-26T09:31:46;102354.84;;;1.20;76.21
46045;BME280;31781;54.094;13.428;2023-01-26T09:33:48;102357.44;;;1.21;75.57
46045;BME280;31781;54.094;13.428;2023-01-26T09:35:50;102356.44;;;1.22;76.17
46045;BME280;31781;54.094;13.428;2023-01-26T09:37:51;102347.44;;;1.23;75.44
46045;BME280;31781;54.094;13.428;2023-01-26T09:39:53;102349.16;;;1.24;75.35
46045;BME280;31781;54.094;13.428;2023-01-26T09:42:03;102349.03;;;1.26;75.72
46045;BME280;31781;54.094;13.428;2023-01-26T09:44:08;102352.56;;;1.26;75.46
46045;BME280;31781;54.094;13.428;2023-01-26T09:46:20;102347.22;;;1.26;75.83
46045;BME280;31781;54.094;13.428;2023-01-26T09:48:34;102353.34;;;1.28;75.67
46045;BME280;31781;54.094;13.428;2023-01-26T09:50:44;102347.97;;;1.28;75.89
46045;BME280;31781;54.094;13.428;2023-01-26T09:52:53;102351.38;;;1.30;75.57
46045;BME280;31781;54.094;13.428;2023-01-26T09:54:58;102347.66;;;1.33;75.54
46045;BME280;31781;54.094;13.428;2023-01-26T09:57:01;102345.81;;;1.33;76.20
46045;BME280;31781;54.094;13.428;2023-01-26T09:59:19;102345.47;;;1.38;75.89
46045;BME280;31781;54.094;13.428;2023-01-26T10:01:30;102334.75;;;1.38;75.37
46045;BME280;31781;54.094;13.428;2023-01-26T10:03:40;102334.66;;;1.39;75.81
46045;BME280;31781;54.094;13.428;2023-01-26T10:05:46;102338.19;;;1.40;75.33
46045;BME280;31781;54.094;13.428;2023-01-26T10:07:51;102342.56;;;1.41;76.01
46045;BME280;31781;54.094;13.428;2023-01-26T10:09:52;102334.44;;;1.42;75.91
46045;BME280;31781;54.094;13.428;2023-01-26T10:11:56;102333.34;;;1.45;75.93
46045;BME280;31781;54.094;13.428;2023-01-26T10:14:04;102338.59;;;1.46;75.78
46045;BME280;31781;54.094;13.428;2023-01-26T10:16:09;102327.88;;;1.46;75.49
46045;BME280;31781;54.094;13.428;2023-01-26T10:18:17;102330.31;;;1.50;75.24
46045;BME280;31781;54.094;13.428;2023-01-26T10:20:26;102323.13;;;1.50;75.54
46045;BME280;31781;54.094;13.428;2023-01-26T10:22:35;102314.97;;;1.52;75.65
46045;BME280;31781;54.094;13.428;2023-01-26T10:24:38;102308.63;;;1.53;75.61
46045;BME280;31781;54.094;13.428;2023-01-26T10:26:41;102304.03;;;1.55;75.63
46045;BME280;31781;54.094;13.428;2023-01-26T10:28:44;102309.25;;;1.56;75.33
46045;BME280;31781;54.094;13.428;2023-01-26T10:30:47;102303.81;;;1.58;75.05
46045;BME280;31781;54.094;13.428;2023-01-26T10:32:51;102300.97;;;1.59;75.78
46045;BME280;31781;54.094;13.428;2023-01-26T10:34:53;102302.72;;;1.60;75.12
46045;BME280;31781;54.094;13.428;2023-01-26T10:37:00;102298.09;;;1.62;75.46
46045;BME280;31781;54.094;13.428;2023-01-26T10:39:05;102299.78;;;1.63;75.19
46045;BME280;31781;54.094;13.428;2023-01-26T10:41:21;102299.69;;;1.65;75.30
46045;BME280;31781;54.094;13.428;2023-01-26T10:43:23;102306.78;;;1.66;75.13
46045;BME280;31781;54.094;13.428;2023-01-26T10:45:28;102307.50;;;1.68;75.81